sensor_id;sensor_type;location;lat;lon;timestamp;P1;durP1;ratioP1;P2;durP2;ratioP2
44222;SDS011;29895;48.804;9.386;2023-07-20T00:01:35;6.35;;;2.00;;
44222;SDS011;29895;48.804;9.386;2023-07-20T00:04:03;5.32;;;2.10;;
44222;SDS011;29895;48.804;9.386;2023-07-20T00:06:28;4.20;;;2.40;;
44222;SDS011;29895;48.804;9.386;2023-07-20T00:08:54;3.58;;;2.03;;
44222;SDS011;29895;48.804;9.386;2023-07-20T00:11:21;3.83;;;2.20;;
44222;SDS011;29895;48.804;9.386;2023-07-20T00:13:50;5.40;;;2.08;;
44222;SDS011;29895;48.804;9.386;2023-07-20T00:16:16;4.38;;;2.15;;
44222;SDS011;29895;48.804;9.386;2023-07-20T00:18:42;5.88;;;2.28;;
44222;SDS011;29895;48.804;9.386;2023-07-20T00:21:07;5.50;;;2.13;;
44222;SDS011;29895;48.804;9.386;2023-07-20T00:23:33;8.48;;;2.47;;
44222;SDS011;29895;48.804;9.386;2023-07-20T00:25:59;6.68;;;2.55;;
44222;SDS011;29895;48.804;9.386;2023-07-20T00:28:24;6.60;;;2.58;;
44222;SDS011;29895;48.804;9.386;2023-07-20T00:30:50;9.38;;;2.45;;
44222;SDS011;29895;48.804;9.386;2023-07-20T00:33:16;4.70;;;2.30;;
44222;SDS011;29895;48.804;9.386;2023-07-20T00:35:43;3.75;;;1.80;;
44222;SDS011;29895;48.804;9.386;2023-07-20T00:38:09;4.00;;;2.30;;
44222;SDS011;29895;48.804;9.386;2023-07-20T00:40:38;6.05;;;2.30;;
44222;SDS011;29895;48.804;9.386;2023-07-20T00:43:04;6.28;;;2.30;;
44222;SDS011;29895;48.804;9.386;2023-07-20T00:45:30;7.25;;;2.58;;
44222;SDS011;29895;48.804;9.386;2023-07-20T00:47:57;6.68;;;2.80;;
44222;SDS011;29895;48.804;9.386;2023-07-20T00:50:24;5.47;;;2.70;;
44222;SDS011;29895;48.804;9.386;2023-07-20T00:52:51;6.97;;;2.78;;
44222;SDS011;29895;48.804;9.386;2023-07-20T00:55:17;5.22;;;2.47;;
44222;SDS011;29895;48.804;9.386;2023-07-20T00:57:44;4.47;;;2.00;;
44222;SDS011;29895;48.804;9.386;2023-07-20T01:00:09;5.18;;;2.47;;
44222;SDS011;29895;48.804;9.386;2023-07-20T01:02:35;9.02;;;2.65;;
44222;SDS011;29895;48.804;9.386;2023-07-20T01:05:01;6.03;;;2.58;;
44222;SDS011;29895;48.804;9.386;2023-07-20T01:07:31;5.53;;;2.38;;
44222;SDS011;29895;48.804;9.386;2023-07-20T01:10:14;2.97;;;1.98;;
44222;SDS011;29895;48.804;9.386;2023-07-20T01:12:52;6.20;;;2.55;;
44222;SDS011;29895;48.804;9.386;2023-07-20T01:15:20;3.78;;;1.75;;
44222;SDS011;29895;48.804;9.386;2023-07-20T01:17:46;5.03;;;1.98;;
44222;SDS011;29895;48.804;9.386;2023-07-20T01:20:15;4.40;;;2.13;;
44222;SDS011;29895;48.804;9.386;2023-07-20T01:22:55;3.33;;;1.77;;
44222;SDS011;29895;48.804;9.386;2023-07-20T01:31:30;5.53;;;2.10;;
44222;SDS011;29895;48.804;9.386;2023-07-20T01:33:58;4.25;;;1.90;;
44222;SDS011;29895;48.804;9.386;2023-07-20T01:36:28;4.38;;;2.08;;
44222;SDS011;29895;48.804;9.386;2023-07-20T01:38:58;4.78;;;1.88;;
44222;SDS011;29895;48.804;9.386;2023-07-20T01:41:24;5.53;;;2.33;;
44222;SDS011;29895;48.804;9.386;2023-07-20T01:43:50;4.18;;;2.35;;
44222;SDS011;29895;48.804;9.386;2023-07-20T01:46:16;5.75;;;2.38;;
44222;SDS011;29895;48.804;9.386;2023-07-20T01:48:41;7.82;;;2.33;;
44222;SDS011;29895;48.804;9.386;2023-07-20T01:51:07;4.55;;;2.10;;
44222;SDS011;29895;48.804;9.386;2023-07-20T01:53:33;6.25;;;2.25;;
44222;SDS011;29895;48.804;9.386;2023-07-20T01:55:59;3.25;;;1.95;;
44222;SDS011;29895;48.804;9.386;2023-07-20T01:58:24;4.50;;;2.28;;
44222;SDS011;29895;48.804;9.386;2023-07-20T02:00:50;3.88;;;2.45;;
44222;SDS011;29895;48.804;9.386;2023-07-20T02:03:16;4.72;;;2.15;;
44222;SDS011;29895;48.804;9.386;2023-07-20T02:05:42;7.13;;;2.40;;
44222;SDS011;29895;48.804;9.386;2023-07-20T02:08:08;4.18;;;2.13;;
44222;SDS011;29895;48.804;9.386;2023-07-20T02:10:34;3.35;;;1.70;;
44222;SDS011;29895;48.804;9.386;2023-07-20T02:13:00;6.40;;;2.42;;
44222;SDS011;29895;48.804;9.386;2023-07-20T02:15:26;5.85;;;2.30;;
44222;SDS011;29895;48.804;9.386;2023-07-20T02:17:52;2.92;;;1.90;;
44222;SDS011;29895;48.804;9.386;2023-07-20T02:20:18;3.08;;;1.90;;
44222;SDS011;29895;48.804;9.386;2023-07-20T02:22:44;6.25;;;2.63;;
44222;SDS011;29895;48.804;9.386;2023-07-20T02:25:10;4.75;;;2.25;;
44222;SDS011;29895;48.804;9.386;2023-07-20T02:27:36;7.47;;;2.08;;
44222;SDS011;29895;48.804;9.386;2023-07-20T02:30:03;3.45;;;2.10;;
44222;SDS011;29895;48.804;9.386;2023-07-20T02:32:30;4.40;;;2.03;;
44222;SDS011;29895;48.804;9.386;2023-07-20T02:34:56;3.47;;;2.08;;
44222;SDS011;29895;48.804;9.386;2023-07-20T02:37:22;6.15;;;2.28;;
44222;SDS011;29895;48.804;9.386;2023-07-20T02:39:48;4.07;;;2.40;;
44222;SDS011;29895;48.804;9.386;2023-07-20T02:42:14;3.53;;;1.95;;
44222;SDS011;29895;48.804;9.386;2023-07-20T02:44:39;4.72;;;2.30;;
44222;SDS011;29895;48.804;9.386;2023-07-20T02:47:05;5.25;;;2.33;;
44222;SDS011;29895;48.804;9.386;2023-07-20T02:49:31;6.93;;;2.25;;
44222;SDS011;29895;48.804;9.386;2023-07-20T02:51:57;11.20;;;2.45;;
44222;SDS011;29895;48.804;9.386;2023-07-20T02:54:22;9.75;;;2.42;;
44222;SDS011;29895;48.804;9.386;2023-07-20T02:56:48;6.65;;;2.30;;
44222;SDS011;29895;48.804;9.386;2023-07-20T02:59:14;3.90;;;2.28;;
44222;SDS011;29895;48.804;9.386;2023-07-20T03:01:39;6.78;;;2.60;;
44222;SDS011;29895;48.804;9.386;2023-07-20T03:04:07;5.63;;;2.42;;
44222;SDS011;29895;48.804;9.386;2023-07-20T03:06:35;5.68;;;2.75;;
44222;SDS011;29895;48.804;9.386;2023-07-20T03:09:01;4.28;;;2.28;;
44222;SDS011;29895;48.804;9.386;2023-07-20T03:11:27;7.35;;;2.65;;
44222;SDS011;29895;48.804;9.386;2023-07-20T03:13:52;6.80;;;2.78;;
44222;SDS011;29895;48.804;9.386;2023-07-20T03:16:19;8.40;;;3.08;;
44222;SDS011;29895;48.804;9.386;2023-07-20T03:18:45;4.32;;;2.45;;
44222;SDS011;29895;48.804;9.386;2023-07-20T03:21:11;4.80;;;2.75;;
44222;SDS011;29895;48.804;9.386;2023-07-20T03:23:37;4.10;;;2.90;;
44222;SDS011;29895;48.804;9.386;2023-07-20T03:26:04;3.97;;;2.28;;
44222;SDS011;29895;48.804;9.386;2023-07-20T03:28:30;6.82;;;2.83;;
44222;SDS011;29895;48.804;9.386;2023-07-20T03:30:56;9.38;;;2.72;;
44222;SDS011;29895;48.804;9.386;2023-07-20T03:33:25;4.00;;;2.70;;
44222;SDS011;29895;48.804;9.386;2023-07-20T03:35:52;5.88;;;2.72;;
44222;SDS011;29895;48.804;9.386;2023-07-20T03:38:19;9.55;;;3.17;;
44222;SDS011;29895;48.804;9.386;2023-07-20T03:40:58;7.68;;;3.10;;
44222;SDS011;29895;48.804;9.386;2023-07-20T03:43:25;6.38;;;2.75;;
44222;SDS011;29895;48.804;9.386;2023-07-20T03:45:52;5.40;;;2.95;;
44222;SDS011;29895;48.804;9.386;2023-07-20T03:48:19;4.95;;;2.97;;
44222;SDS011;29895;48.804;9.386;2023-07-20T03:50:47;7.60;;;3.20;;
44222;SDS011;29895;48.804;9.386;2023-07-20T03:53:14;5.10;;;2.70;;
44222;SDS011;29895;48.804;9.386;2023-07-20T03:55:50;6.60;;;2.72;;
44222;SDS011;29895;48.804;9.386;2023-07-20T03:58:17;8.85;;;3.15;;
44222;SDS011;29895;48.804;9.386;2023-07-20T04:00:47;7.65;;;3.60;;
44222;SDS011;29895;48.804;9.386;2023-07-20T04:03:15;5.88;;;2.47;;
44222;SDS011;29895;48.804;9.386;2023-07-20T04:05:42;9.27;;;2.85;;
44222;SDS011;29895;48.804;9.386;2023-07-20T04:08:08;5.68;;;2.63;;
44222;SDS011;29895;48.804;9.386;2023-07-20T04:10:36;7.18;;;2.88;;
44222;SDS011;29895;48.804;9.386;2023-07-20T04:13:01;4.57;;;2.60;;
44222;SDS011;29895;48.804;9.386;2023-07-20T04:15:27;5.90;;;2.92;;
44222;SDS011;29895;48.804;9.386;2023-07-20T04:17:53;3.92;;;2.85;;
44222;SDS011;29895;48.804;9.386;2023-07-20T04:20:20;6.00;;;3.05;;
44222;SDS011;29895;48.804;9.386;2023-07-20T04:22:46;4.28;;;3.05;;
44222;SDS011;29895;48.804;9.386;2023-07-20T04:25:11;7.88;;;3.03;;
44222;SDS011;29895;48.804;9.386;2023-07-20T04:27:37;5.28;;;2.55;;
44222;SDS011;29895;48.804;9.386;2023-07-20T04:30:03;4.93;;;2.60;;
44222;SDS011;29895;48.804;9.386;2023-07-20T04:32:29;8.32;;;2.90;;
44222;SDS011;29895;48.804;9.386;2023-07-20T04:34:55;6.22;;;2.78;;
44222;SDS011;29895;48.804;9.386;2023-07-20T04:37:21;6.13;;;2.63;;
44222;SDS011;29895;48.804;9.386;2023-07-20T04:39:46;5.93;;;2.80;;
44222;SDS011;29895;48.804;9.386;2023-07-20T04:42:12;4.57;;;2.67;;
44222;SDS011;29895;48.804;9.386;2023-07-20T04:44:38;6.82;;;2.65;;
44222;SDS011;29895;48.804;9.386;2023-07-20T04:47:03;7.28;;;2.25;;
44222;SDS011;29895;48.804;9.386;2023-07-20T04:49:29;4.57;;;2.55;;
44222;SDS011;29895;48.804;9.386;2023-07-20T04:51:55;5.53;;;2.90;;
44222;SDS011;29895;48.804;9.386;2023-07-20T04:54:21;4.00;;;2.40;;
44222;SDS011;29895;48.804;9.386;2023-07-20T04:56:46;5.32;;;2.85;;
44222;SDS011;29895;48.804;9.386;2023-07-20T04:59:12;5.22;;;2.58;;
44222;SDS011;29895;48.804;9.386;2023-07-20T05:01:38;4.90;;;2.60;;
44222;SDS011;29895;48.804;9.386;2023-07-20T05:04:03;5.22;;;2.80;;
44222;SDS011;29895;48.804;9.386;2023-07-20T05:06:29;4.15;;;2.55;;
44222;SDS011;29895;48.804;9.386;2023-07-20T05:08:54;5.75;;;2.72;;
44222;SDS011;29895;48.804;9.386;2023-07-20T05:11:20;7.60;;;2.35;;
44222;SDS011;29895;48.804;9.386;2023-07-20T05:13:46;4.57;;;2.75;;
44222;SDS011;29895;48.804;9.386;2023-07-20T05:16:11;4.80;;;2.38;;
44222;SDS011;29895;48.804;9.386;2023-07-20T05:18:37;5.15;;;2.72;;
44222;SDS011;29895;48.804;9.386;2023-07-20T05:21:02;7.63;;;2.50;;
44222;SDS011;29895;48.804;9.386;2023-07-20T05:23:28;5.75;;;2.38;;
44222;SDS011;29895;48.804;9.386;2023-07-20T05:25:57;4.03;;;2.30;;
44222;SDS011;29895;48.804;9.386;2023-07-20T05:28:24;4.78;;;2.05;;
44222;SDS011;29895;48.804;9.386;2023-07-20T05:30:51;8.55;;;2.70;;
44222;SDS011;29895;48.804;9.386;2023-07-20T05:33:20;7.85;;;3.40;;
44222;SDS011;29895;48.804;9.386;2023-07-20T05:35:46;7.07;;;3.03;;
44222;SDS011;29895;48.804;9.386;2023-07-20T05:38:12;11.48;;;2.92;;
44222;SDS011;29895;48.804;9.386;2023-07-20T05:40:41;6.18;;;2.80;;
44222;SDS011;29895;48.804;9.386;2023-07-20T05:43:09;8.85;;;2.80;;
44222;SDS011;29895;48.804;9.386;2023-07-20T05:45:34;5.88;;;2.83;;
44222;SDS011;29895;48.804;9.386;2023-07-20T05:48:00;5.97;;;2.40;;
44222;SDS011;29895;48.804;9.386;2023-07-20T05:50:26;4.28;;;2.55;;
44222;SDS011;29895;48.804;9.386;2023-07-20T05:52:53;5.57;;;2.50;;
44222;SDS011;29895;48.804;9.386;2023-07-20T05:55:19;6.15;;;2.30;;
44222;SDS011;29895;48.804;9.386;2023-07-20T05:57:44;4.38;;;2.40;;
44222;SDS011;29895;48.804;9.386;2023-07-20T06:00:10;10.27;;;3.53;;
44222;SDS011;29895;48.804;9.386;2023-07-20T06:02:37;6.03;;;2.63;;
44222;SDS011;29895;48.804;9.386;2023-07-20T06:05:04;8.07;;;2.47;;
44222;SDS011;29895;48.804;9.386;2023-07-20T06:07:37;6.70;;;2.13;;
44222;SDS011;29895;48.804;9.386;2023-07-20T06:10:03;4.40;;;2.28;;
44222;SDS011;29895;48.804;9.386;2023-07-20T06:12:30;6.00;;;2.38;;
44222;SDS011;29895;48.804;9.386;2023-07-20T06:14:56;7.32;;;2.33;;
44222;SDS011;29895;48.804;9.386;2023-07-20T06:17:22;7.88;;;2.38;;
44222;SDS011;29895;48.804;9.386;2023-07-20T06:19:47;5.53;;;2.47;;
44222;SDS011;29895;48.804;9.386;2023-07-20T06:22:13;5.57;;;2.22;;
44222;SDS011;29895;48.804;9.386;2023-07-20T06:24:38;5.20;;;2.22;;
44222;SDS011;29895;48.804;9.386;2023-07-20T06:27:04;5.22;;;2.45;;
44222;SDS011;29895;48.804;9.386;2023-07-20T06:29:30;3.90;;;2.65;;
44222;SDS011;29895;48.804;9.386;2023-07-20T06:31:56;5.97;;;2.28;;
44222;SDS011;29895;48.804;9.386;2023-07-20T06:34:22;4.00;;;2.28;;
44222;SDS011;29895;48.804;9.386;2023-07-20T06:36:48;7.32;;;2.60;;
44222;SDS011;29895;48.804;9.386;2023-07-20T06:39:14;6.15;;;2.05;;
44222;SDS011;29895;48.804;9.386;2023-07-20T06:41:40;5.10;;;2.42;;
44222;SDS011;29895;48.804;9.386;2023-07-20T06:44:05;4.90;;;2.00;;
44222;SDS011;29895;48.804;9.386;2023-07-20T06:46:32;4.30;;;2.30;;
44222;SDS011;29895;48.804;9.386;2023-07-20T06:48:58;6.07;;;2.30;;
44222;SDS011;29895;48.804;9.386;2023-07-20T06:51:24;5.10;;;2.13;;
44222;SDS011;29895;48.804;9.386;2023-07-20T06:53:49;6.10;;;2.30;;
44222;SDS011;29895;48.804;9.386;2023-07-20T06:56:15;5.15;;;2.50;;
44222;SDS011;29895;48.804;9.386;2023-07-20T06:58:40;5.80;;;2.28;;
44222;SDS011;29895;48.804;9.386;2023-07-20T07:01:07;5.40;;;2.80;;
44222;SDS011;29895;48.804;9.386;2023-07-20T07:03:33;5.82;;;2.70;;
44222;SDS011;29895;48.804;9.386;2023-07-20T07:05:59;9.13;;;2.47;;
44222;SDS011;29895;48.804;9.386;2023-07-20T07:08:25;6.40;;;2.25;;
44222;SDS011;29895;48.804;9.386;2023-07-20T07:10:51;7.40;;;2.45;;
44222;SDS011;29895;48.804;9.386;2023-07-20T07:13:17;4.60;;;2.20;;
44222;SDS011;29895;48.804;9.386;2023-07-20T07:15:43;5.70;;;2.20;;
44222;SDS011;29895;48.804;9.386;2023-07-20T07:18:09;7.57;;;2.28;;
44222;SDS011;29895;48.804;9.386;2023-07-20T07:20:35;5.50;;;2.53;;
44222;SDS011;29895;48.804;9.386;2023-07-20T07:23:01;5.55;;;2.60;;
44222;SDS011;29895;48.804;9.386;2023-07-20T07:25:26;5.15;;;2.20;;
44222;SDS011;29895;48.804;9.386;2023-07-20T07:27:52;4.97;;;2.35;;
44222;SDS011;29895;48.804;9.386;2023-07-20T07:30:19;5.15;;;2.58;;
44222;SDS011;29895;48.804;9.386;2023-07-20T07:32:45;8.98;;;2.40;;
44222;SDS011;29895;48.804;9.386;2023-07-20T07:35:10;5.88;;;2.47;;
44222;SDS011;29895;48.804;9.386;2023-07-20T07:37:36;7.35;;;2.38;;
44222;SDS011;29895;48.804;9.386;2023-07-20T07:40:02;4.35;;;2.13;;
44222;SDS011;29895;48.804;9.386;2023-07-20T07:42:29;5.93;;;2.40;;
44222;SDS011;29895;48.804;9.386;2023-07-20T07:44:55;10.05;;;2.80;;
44222;SDS011;29895;48.804;9.386;2023-07-20T07:47:20;5.05;;;2.42;;
44222;SDS011;29895;48.804;9.386;2023-07-20T07:49:46;7.03;;;2.35;;
44222;SDS011;29895;48.804;9.386;2023-07-20T07:52:12;4.53;;;2.17;;
44222;SDS011;29895;48.804;9.386;2023-07-20T07:54:39;6.53;;;2.30;;
44222;SDS011;29895;48.804;9.386;2023-07-20T07:57:04;9.60;;;2.58;;
44222;SDS011;29895;48.804;9.386;2023-07-20T07:59:30;4.15;;;2.58;;
44222;SDS011;29895;48.804;9.386;2023-07-20T08:02:01;4.28;;;2.35;;
44222;SDS011;29895;48.804;9.386;2023-07-20T08:04:28;9.23;;;2.55;;
44222;SDS011;29895;48.804;9.386;2023-07-20T08:06:53;5.28;;;2.30;;
44222;SDS011;29895;48.804;9.386;2023-07-20T08:09:19;5.60;;;2.20;;
44222;SDS011;29895;48.804;9.386;2023-07-20T08:11:44;6.13;;;2.45;;
44222;SDS011;29895;48.804;9.386;2023-07-20T08:14:10;4.45;;;2.08;;
44222;SDS011;29895;48.804;9.386;2023-07-20T08:16:36;4.85;;;2.45;;
44222;SDS011;29895;48.804;9.386;2023-07-20T08:19:01;7.22;;;2.38;;
44222;SDS011;29895;48.804;9.386;2023-07-20T08:21:27;4.70;;;1.85;;
44222;SDS011;29895;48.804;9.386;2023-07-20T08:23:53;6.65;;;2.40;;
44222;SDS011;29895;48.804;9.386;2023-07-20T08:26:19;4.18;;;2.00;;
44222;SDS011;29895;48.804;9.386;2023-07-20T08:28:47;4.43;;;2.08;;
44222;SDS011;29895;48.804;9.386;2023-07-20T08:31:13;4.95;;;2.20;;
44222;SDS011;29895;48.804;9.386;2023-07-20T08:33:39;4.53;;;2.30;;
44222;SDS011;29895;48.804;9.386;2023-07-20T08:36:04;5.43;;;2.20;;
44222;SDS011;29895;48.804;9.386;2023-07-20T08:38:34;3.42;;;1.83;;
44222;SDS011;29895;48.804;9.386;2023-07-20T08:40:59;8.40;;;2.33;;
44222;SDS011;29895;48.804;9.386;2023-07-20T08:43:27;4.10;;;2.00;;
44222;SDS011;29895;48.804;9.386;2023-07-20T08:45:54;6.10;;;2.63;;
44222;SDS011;29895;48.804;9.386;2023-07-20T08:48:23;7.68;;;2.25;;
44222;SDS011;29895;48.804;9.386;2023-07-20T08:50:53;9.60;;;2.30;;
44222;SDS011;29895;48.804;9.386;2023-07-20T08:53:19;6.78;;;2.30;;
44222;SDS011;29895;48.804;9.386;2023-07-20T08:55:45;8.70;;;2.30;;
44222;SDS011;29895;48.804;9.386;2023-07-20T08:58:15;5.82;;;2.78;;
44222;SDS011;29895;48.804;9.386;2023-07-20T09:00:41;9.20;;;2.78;;
44222;SDS011;29895;48.804;9.386;2023-07-20T09:03:08;6.38;;;2.40;;
44222;SDS011;29895;48.804;9.386;2023-07-20T09:05:35;6.40;;;2.47;;
44222;SDS011;29895;48.804;9.386;2023-07-20T09:08:01;5.57;;;2.13;;
44222;SDS011;29895;48.804;9.386;2023-07-20T09:10:30;5.70;;;2.47;;
44222;SDS011;29895;48.804;9.386;2023-07-20T09:12:55;6.68;;;2.25;;
44222;SDS011;29895;48.804;9.386;2023-07-20T09:15:22;5.75;;;1.92;;
44222;SDS011;29895;48.804;9.386;2023-07-20T09:17:51;9.85;;;2.03;;
44222;SDS011;29895;48.804;9.386;2023-07-20T09:20:19;6.47;;;2.90;;
44222;SDS011;29895;48.804;9.386;2023-07-20T09:22:45;5.70;;;1.92;;
44222;SDS011;29895;48.804;9.386;2023-07-20T09:27:39;4.65;;;1.80;;
44222;SDS011;29895;48.804;9.386;2023-07-20T09:30:06;4.95;;;2.15;;
44222;SDS011;29895;48.804;9.386;2023-07-20T09:32:38;4.47;;;2.03;;
44222;SDS011;29895;48.804;9.386;2023-07-20T09:35:13;4.65;;;2.40;;
44222;SDS011;29895;48.804;9.386;2023-07-20T09:37:40;4.05;;;2.35;;
44222;SDS011;29895;48.804;9.386;2023-07-20T09:40:10;6.43;;;1.80;;
44222;SDS011;29895;48.804;9.386;2023-07-20T09:42:36;9.05;;;2.05;;
44222;SDS011;29895;48.804;9.386;2023-07-20T09:45:03;3.42;;;2.38;;
44222;SDS011;29895;48.804;9.386;2023-07-20T09:47:31;3.20;;;2.10;;
44222;SDS011;29895;48.804;9.386;2023-07-20T09:50:04;7.57;;;2.50;;
44222;SDS011;29895;48.804;9.386;2023-07-20T09:52:37;6.70;;;2.53;;
44222;SDS011;29895;48.804;9.386;2023-07-20T09:55:05;4.10;;;1.80;;
44222;SDS011;29895;48.804;9.386;2023-07-20T09:57:34;3.55;;;1.70;;
44222;SDS011;29895;48.804;9.386;2023-07-20T10:00:01;3.92;;;1.92;;
44222;SDS011;29895;48.804;9.386;2023-07-20T10:02:33;4.50;;;2.42;;
44222;SDS011;29895;48.804;9.386;2023-07-20T10:05:00;5.35;;;2.08;;
44222;SDS011;29895;48.804;9.386;2023-07-20T10:07:29;3.35;;;2.10;;
44222;SDS011;29895;48.804;9.386;2023-07-20T10:09:56;2.72;;;1.92;;
44222;SDS011;29895;48.804;9.386;2023-07-20T10:12:24;3.20;;;1.70;;
44222;SDS011;29895;48.804;9.386;2023-07-20T10:15:09;6.25;;;2.40;;
44222;SDS011;29895;48.804;9.386;2023-07-20T10:17:37;3.50;;;1.80;;
44222;SDS011;29895;48.804;9.386;2023-07-20T10:20:09;5.35;;;1.95;;
44222;SDS011;29895;48.804;9.386;2023-07-20T10:22:36;3.20;;;1.88;;
44222;SDS011;29895;48.804;9.386;2023-07-20T10:25:04;5.72;;;2.42;;
44222;SDS011;29895;48.804;9.386;2023-07-20T10:27:31;3.85;;;2.08;;
44222;SDS011;29895;48.804;9.386;2023-07-20T10:29:57;4.68;;;1.70;;
44222;SDS011;29895;48.804;9.386;2023-07-20T10:32:25;4.05;;;1.65;;
44222;SDS011;29895;48.804;9.386;2023-07-20T10:34:51;3.10;;;1.90;;
44222;SDS011;29895;48.804;9.386;2023-07-20T10:37:45;1.90;;;1.50;;
44222;SDS011;29895;48.804;9.386;2023-07-20T10:40:34;4.00;;;1.65;;
44222;SDS011;29895;48.804;9.386;2023-07-20T10:43:06;2.45;;;1.75;;
44222;SDS011;29895;48.804;9.386;2023-07-20T10:45:34;4.32;;;1.60;;
44222;SDS011;29895;48.804;9.386;2023-07-20T10:48:22;5.32;;;2.00;;
44222;SDS011;29895;48.804;9.386;2023-07-20T10:53:33;7.15;;;2.08;;
44222;SDS011;29895;48.804;9.386;2023-07-20T10:56:12;4.28;;;1.50;;
44222;SDS011;29895;48.804;9.386;2023-07-20T10:58:40;3.58;;;1.90;;
44222;SDS011;29895;48.804;9.386;2023-07-20T11:01:07;3.53;;;1.73;;
44222;SDS011;29895;48.804;9.386;2023-07-20T11:03:35;4.78;;;1.88;;
44222;SDS011;29895;48.804;9.386;2023-07-20T11:08:48;2.25;;;1.30;;
44222;SDS011;29895;48.804;9.386;2023-07-20T11:11:23;3.53;;;1.50;;
44222;SDS011;29895;48.804;9.386;2023-07-20T11:14:08;5.57;;;1.83;;
44222;SDS011;29895;48.804;9.386;2023-07-20T11:16:37;3.35;;;1.52;;
44222;SDS011;29895;48.804;9.386;2023-07-20T11:19:19;4.38;;;1.58;;
44222;SDS011;29895;48.804;9.386;2023-07-20T11:21:52;6.50;;;1.70;;
44222;SDS011;29895;48.804;9.386;2023-07-20T11:24:20;4.82;;;1.80;;
44222;SDS011;29895;48.804;9.386;2023-07-20T11:29:12;3.70;;;1.67;;
44222;SDS011;29895;48.804;9.386;2023-07-20T11:31:39;7.75;;;1.92;;
44222;SDS011;29895;48.804;9.386;2023-07-20T11:34:07;3.70;;;1.88;;
44222;SDS011;29895;48.804;9.386;2023-07-20T11:36:36;4.93;;;1.67;;
44222;SDS011;29895;48.804;9.386;2023-07-20T11:39:03;3.38;;;1.65;;
44222;SDS011;29895;48.804;9.386;2023-07-20T11:41:30;1.42;;;1.20;;
44222;SDS011;29895;48.804;9.386;2023-07-20T11:43:57;4.78;;;1.65;;
44222;SDS011;29895;48.804;9.386;2023-07-20T11:46:22;3.38;;;1.60;;
44222;SDS011;29895;48.804;9.386;2023-07-20T11:48:48;5.85;;;1.73;;
44222;SDS011;29895;48.804;9.386;2023-07-20T11:51:14;4.13;;;1.60;;
44222;SDS011;29895;48.804;9.386;2023-07-20T11:53:41;5.47;;;1.23;;
44222;SDS011;29895;48.804;9.386;2023-07-20T11:56:08;1.67;;;1.30;;
44222;SDS011;29895;48.804;9.386;2023-07-20T11:58:34;2.50;;;1.67;;
44222;SDS011;29895;48.804;9.386;2023-07-20T12:01:00;4.68;;;1.40;;
44222;SDS011;29895;48.804;9.386;2023-07-20T12:03:27;2.53;;;1.25;;
44222;SDS011;29895;48.804;9.386;2023-07-20T12:05:52;7.03;;;1.27;;
44222;SDS011;29895;48.804;9.386;2023-07-20T12:08:18;2.45;;;1.30;;
44222;SDS011;29895;48.804;9.386;2023-07-20T12:10:44;3.30;;;1.25;;
44222;SDS011;29895;48.804;9.386;2023-07-20T12:13:10;2.60;;;1.95;;
44222;SDS011;29895;48.804;9.386;2023-07-20T12:15:39;3.22;;;1.30;;
44222;SDS011;29895;48.804;9.386;2023-07-20T12:18:05;2.65;;;1.58;;
44222;SDS011;29895;48.804;9.386;2023-07-20T12:20:36;2.45;;;1.63;;
44222;SDS011;29895;48.804;9.386;2023-07-20T12:25:42;3.75;;;1.50;;
44222;SDS011;29895;48.804;9.386;2023-07-20T12:28:12;1.77;;;1.05;;
44222;SDS011;29895;48.804;9.386;2023-07-20T12:30:39;2.78;;;1.08;;
44222;SDS011;29895;48.804;9.386;2023-07-20T12:33:05;4.55;;;1.40;;
44222;SDS011;29895;48.804;9.386;2023-07-20T12:35:31;4.43;;;1.40;;
44222;SDS011;29895;48.804;9.386;2023-07-20T12:37:57;2.95;;;1.52;;
44222;SDS011;29895;48.804;9.386;2023-07-20T12:40:23;3.83;;;1.20;;
44222;SDS011;29895;48.804;9.386;2023-07-20T12:42:49;3.90;;;1.30;;
44222;SDS011;29895;48.804;9.386;2023-07-20T12:45:15;3.05;;;1.23;;
44222;SDS011;29895;48.804;9.386;2023-07-20T12:47:41;1.90;;;1.30;;
44222;SDS011;29895;48.804;9.386;2023-07-20T12:50:08;3.53;;;1.60;;
44222;SDS011;29895;48.804;9.386;2023-07-20T12:52:38;3.40;;;1.58;;
44222;SDS011;29895;48.804;9.386;2023-07-20T12:55:05;3.08;;;1.50;;
44222;SDS011;29895;48.804;9.386;2023-07-20T12:57:33;5.05;;;1.60;;
44222;SDS011;29895;48.804;9.386;2023-07-20T13:00:03;3.53;;;1.50;;
44222;SDS011;29895;48.804;9.386;2023-07-20T13:02:30;3.65;;;1.40;;
44222;SDS011;29895;48.804;9.386;2023-07-20T13:04:57;3.65;;;1.35;;
44222;SDS011;29895;48.804;9.386;2023-07-20T13:07:33;2.95;;;1.50;;
44222;SDS011;29895;48.804;9.386;2023-07-20T13:10:00;2.15;;;1.33;;
44222;SDS011;29895;48.804;9.386;2023-07-20T13:12:27;1.98;;;1.45;;
44222;SDS011;29895;48.804;9.386;2023-07-20T13:14:57;4.47;;;1.60;;
44222;SDS011;29895;48.804;9.386;2023-07-20T13:17:26;3.17;;;1.35;;
44222;SDS011;29895;48.804;9.386;2023-07-20T13:19:52;2.80;;;1.30;;
44222;SDS011;29895;48.804;9.386;2023-07-20T13:22:18;3.08;;;1.55;;
44222;SDS011;29895;48.804;9.386;2023-07-20T13:24:46;3.20;;;1.58;;
44222;SDS011;29895;48.804;9.386;2023-07-20T13:27:18;1.77;;;1.40;;
44222;SDS011;29895;48.804;9.386;2023-07-20T13:29:44;1.77;;;1.30;;
44222;SDS011;29895;48.804;9.386;2023-07-20T13:32:13;2.70;;;1.40;;
44222;SDS011;29895;48.804;9.386;2023-07-20T13:34:43;2.88;;;1.48;;
44222;SDS011;29895;48.804;9.386;2023-07-20T13:37:09;1.73;;;1.50;;
44222;SDS011;29895;48.804;9.386;2023-07-20T13:39:36;3.97;;;1.50;;
44222;SDS011;29895;48.804;9.386;2023-07-20T13:42:02;3.47;;;1.48;;
44222;SDS011;29895;48.804;9.386;2023-07-20T13:44:30;3.38;;;1.30;;
44222;SDS011;29895;48.804;9.386;2023-07-20T13:46:56;4.38;;;1.38;;
44222;SDS011;29895;48.804;9.386;2023-07-20T13:49:22;2.00;;;1.30;;
44222;SDS011;29895;48.804;9.386;2023-07-20T13:51:48;3.38;;;1.40;;
44222;SDS011;29895;48.804;9.386;2023-07-20T13:54:14;1.75;;;1.20;;
44222;SDS011;29895;48.804;9.386;2023-07-20T13:56:39;4.65;;;1.45;;
44222;SDS011;29895;48.804;9.386;2023-07-20T13:59:05;2.15;;;1.60;;
44222;SDS011;29895;48.804;9.386;2023-07-20T14:01:31;4.97;;;1.52;;
44222;SDS011;29895;48.804;9.386;2023-07-20T14:03:59;2.83;;;1.50;;
44222;SDS011;29895;48.804;9.386;2023-07-20T14:06:25;2.80;;;1.38;;
44222;SDS011;29895;48.804;9.386;2023-07-20T14:08:54;2.08;;;1.30;;
44222;SDS011;29895;48.804;9.386;2023-07-20T14:11:20;3.30;;;1.55;;
44222;SDS011;29895;48.804;9.386;2023-07-20T14:13:45;2.78;;;1.50;;
44222;SDS011;29895;48.804;9.386;2023-07-20T14:16:11;2.53;;;1.23;;
44222;SDS011;29895;48.804;9.386;2023-07-20T14:18:36;3.63;;;1.42;;
44222;SDS011;29895;48.804;9.386;2023-07-20T14:21:02;3.63;;;1.48;;
44222;SDS011;29895;48.804;9.386;2023-07-20T14:23:29;5.15;;;1.40;;
44222;SDS011;29895;48.804;9.386;2023-07-20T14:25:55;2.85;;;1.35;;
44222;SDS011;29895;48.804;9.386;2023-07-20T14:28:21;5.15;;;1.17;;
44222;SDS011;29895;48.804;9.386;2023-07-20T14:30:47;3.67;;;1.40;;
44222;SDS011;29895;48.804;9.386;2023-07-20T14:33:12;4.50;;;1.15;;
44222;SDS011;29895;48.804;9.386;2023-07-20T14:35:38;3.72;;;1.65;;
44222;SDS011;29895;48.804;9.386;2023-07-20T14:38:04;2.63;;;1.42;;
44222;SDS011;29895;48.804;9.386;2023-07-20T14:40:29;5.35;;;1.63;;
44222;SDS011;29895;48.804;9.386;2023-07-20T14:42:55;2.38;;;1.20;;
44222;SDS011;29895;48.804;9.386;2023-07-20T14:45:21;2.42;;;1.38;;
44222;SDS011;29895;48.804;9.386;2023-07-20T14:47:47;2.38;;;1.40;;
44222;SDS011;29895;48.804;9.386;2023-07-20T14:50:18;4.13;;;1.80;;
44222;SDS011;29895;48.804;9.386;2023-07-20T14:52:47;3.28;;;1.67;;
44222;SDS011;29895;48.804;9.386;2023-07-20T14:55:13;2.90;;;1.48;;
44222;SDS011;29895;48.804;9.386;2023-07-20T14:57:38;4.50;;;1.60;;
44222;SDS011;29895;48.804;9.386;2023-07-20T15:00:04;3.90;;;1.80;;
44222;SDS011;29895;48.804;9.386;2023-07-20T15:02:38;2.80;;;1.40;;
44222;SDS011;29895;48.804;9.386;2023-07-20T15:05:07;6.10;;;1.48;;
44222;SDS011;29895;48.804;9.386;2023-07-20T15:07:33;3.97;;;1.60;;